Latest Weather Observations for Charlton

IDV60801

Issued at 10:32 pm EDT Thursday 8 December 2016 (issued every 30 minutes, with the page automatically refreshed every 10 minutes)

About weather observations | Map of weather stations | Latest weather observations for VIC | Other Formats
Station Details ID: 080128 Name: CHARLTON Lat: -36.28 Lon: 143.33 Height: 131.7 m
Data from the previous 72 hours. | See also: Recent months at Charlton
Date/Time
EDT
Temp
°C
App
Temp
°C
Dew
Point
°C
Rel
Hum
%
Delta-T
°C
Wind Press
QNH
hPa
Press
MSL
hPa
Rain since
9am
mm
Dir  Spd
km/h
Gust
km/h
Spd
kts
Gust
kts
08/10:30pm 11.9 7.8 8.0 77 1.9 WSW 19 26 10 14 1010.6 1010.1 0.2
08/10:00pm 12.4 8.4 8.3 76 2.0 WSW 19 35 10 19 1009.8 1009.4 0.2
08/09:30pm 12.7 8.1 8.2 74 2.2 WSW 22 41 12 22 1009.2 1008.8 0.2
08/09:00pm 12.9 9.0 8.8 76 2.1 WSW 19 33 10 18 1008.6 1008.2 0.2
08/08:30pm 13.2 7.7 9.3 77 2.0 SW 28 50 15 27 1007.8 1007.3 0.2
08/08:24pm 13.9 8.1 8.1 68 2.9 SW 28 50 15 27 1007.4 1006.9 0.2
08/08:00pm 15.8 11.4 6.5 54 4.6 WSW 19 32 10 17 1006.7 1006.2 0.2
08/07:30pm 16.9 10.6 7.5 54 4.7 WSW 30 46 16 25 1006.2 1005.7 0.2
08/07:23pm 17.0 11.0 7.1 52 5.0 WSW 28 46 15 25 1006.0 1005.5 0.2
08/07:00pm 15.9 10.4 7.4 57 4.3 WSW 26 43 14 23 1005.6 1005.1 0.2
08/06:48pm 17.5 11.7 8.1 54 4.8 WSW 28 52 15 28 1005.3 1004.8 0.2
08/06:30pm 18.1 13.3 8.9 55 4.8 WSW 24 39 13 21 1004.8 1004.3 0.2
08/06:00pm 14.4 9.9 10.2 76 2.2 SW 24 46 13 25 1004.6 1004.1 0.2
08/05:38pm 16.6 11.0 8.8 60 4.0 SW 28 48 15 26 1004.2 1003.7 0.2
08/05:30pm 18.1 12.8 6.6 47 5.7 WSW 24 46 13 25 1003.9 1003.4 0.2
08/05:00pm 20.6 13.3 4.6 35 7.9 WSW 32 56 17 30 1003.3 1002.8 0.2
08/04:30pm 19.8 12.7 5.5 39 7.1 WSW 32 57 17 31 1002.7 1002.2 0.2
08/04:00pm 21.8 12.9 5.3 34 8.3 WSW 41 65 22 35 1002.3 1001.9 0.2
08/03:30pm 22.7 14.6 6.9 36 8.2 W 39 59 21 32 1001.9 1001.4 0.2
08/03:00pm 22.4 13.5 4.9 32 8.8 W 41 67 22 36 1001.9 1001.4 0.2
08/02:30pm 22.2 14.2 3.8 30 9.0 W 35 63 19 34 1001.9 1001.4 0.2
08/02:00pm 21.7 14.0 5.2 34 8.3 WSW 35 59 19 32 1001.8 1001.3 0.2
08/01:30pm 20.7 12.2 5.1 36 7.7 W 39 65 21 35 1001.9 1001.4 0.2
08/01:00pm 21.1 14.4 7.3 41 7.2 W 32 57 17 31 1001.7 1001.2 0.2
08/12:30pm 20.9 15.5 11.0 53 5.5 W 30 50 16 27 1001.5 1001.0 0.2
08/12:00pm 18.4 13.4 11.0 62 4.1 W 28 46 15 25 1001.5 1001.0 0.2
08/11:47am 17.5 12.6 11.3 67 3.4 W 28 52 15 28 1001.7 1001.2 0.2
08/11:30am 16.3 13.9 12.5 78 2.1 W 17 30 9 16 1001.9 1001.4 0.2
08/11:00am 15.0 11.8 12.0 82 1.6 W 20 32 11 17 1001.8 1001.3 0.2
08/10:30am 14.3 11.2 12.2 87 1.1 W 20 32 11 17 1001.5 1001.0 0.2
08/10:00am 13.9 10.4 12.1 89 1.0 W 22 35 12 19 1001.3 1000.8 0.0
08/09:30am 14.4 9.0 11.0 80 1.8 W 30 57 16 31 1001.1 1000.6 0.0
08/09:19am 14.9 10.8 13.8 93 0.6 W 28 52 15 28 1001.2 1000.7 0.0
08/09:00am 15.9 12.4 14.4 91 0.9 W 26 48 14 26 1000.9 1000.4 4.6
08/08:56am 16.7 13.6 15.6 93 0.6 WNW 26 48 14 26 1000.8 1000.3 4.6
08/08:55am 17.0 14.5 16.2 95 0.5 WNW 24 48 13 26 1000.7 1000.2 4.6
08/08:30am 18.1 18.0 17.8 98 0.2 NW 15 26 8 14 1000.1 999.6 4.0
08/08:00am 18.1 17.3 17.1 94 0.6 NNW 17 24 9 13 999.6 999.1 3.0
08/07:30am 18.0 17.5 16.9 93 0.7 NNW 15 22 8 12 1000.0 999.5 2.4
08/07:00am 18.2 17.6 16.7 91 0.9 NNW 15 24 8 13 1000.1 999.6 2.0
08/06:30am 17.8 16.7 15.4 86 1.4 NNW 15 20 8 11 1000.3 999.8 1.4
08/06:00am 17.9 17.7 14.6 81 1.9 NNW 9 19 5 10 1000.9 1000.4 0.8
08/05:30am 18.5 17.9 13.4 72 2.9 W 9 17 5 9 1000.6 1000.1 0.4
08/05:00am 22.5 19.0 10.3 46 6.8 N 19 30 10 16 999.5 999.0 0.0
08/04:30am 21.6 18.2 10.7 50 6.0 N 19 30 10 16 999.8 999.3 0.0
08/04:00am 23.9 19.2 7.9 36 8.5 N 22 32 12 17 1000.2 999.7 0.0
08/03:30am 24.0 19.6 7.6 35 8.7 N 20 35 11 19 1000.1 999.6 0.0
08/03:00am 23.6 19.5 7.7 36 8.4 N 19 39 10 21 1000.8 1000.3 0.0
08/02:30am 23.5 19.1 7.2 35 8.5 NNE 20 33 11 18 1001.1 1000.6 0.0
08/02:00am 23.3 19.1 7.4 36 8.4 NNE 19 30 10 16 1001.8 1001.3 0.0
08/01:30am 23.0 18.7 7.1 36 8.3 NNE 19 28 10 15 1002.3 1001.9 0.0
08/01:00am 23.0 18.8 7.5 37 8.2 NNE 19 30 10 16 1002.8 1002.3 0.0
08/12:30am 22.8 19.0 7.4 37 8.1 NNE 17 28 9 15 1003.5 1003.0 0.0
08/12:00am 23.2 19.4 7.7 37 8.2 NNE 17 22 9 12 1004.6 1004.1 0.0
 
Date/Time
EDT
Temp
°C
App
Temp
°C
Dew
Point
°C
Rel
Hum
%
Delta-T
°C
Wind Press
QNH
hPa
Press
MSL
hPa
Rain since
9am
mm
Dir  Spd
km/h
Gust
km/h
Spd
kts
Gust
kts
07/11:30pm 22.8 19.7 7.4 37 8.1 NNE 13 20 7 11 1005.1 1004.6 0.0
07/11:00pm 23.3 20.1 7.0 35 8.5 NNE 13 17 7 9 1005.5 1005.0 0.0
07/10:30pm 24.4 21.7 7.5 34 8.9 NNE 11 19 6 10 1005.9 1005.4 0.0
07/10:00pm 24.3 21.6 7.4 34 8.9 NNE 11 15 6 8 1006.2 1005.7 0.0
07/09:30pm 25.1 22.9 7.7 33 9.3 NNE 9 13 5 7 1006.5 1006.0 0.0
07/09:00pm 25.2 22.9 7.3 32 9.5 N 9 11 5 6 1006.6 1006.1 0.0
07/08:30pm 26.6 24.3 7.6 30 10.2 N 9 13 5 7 1006.7 1006.2 0.0
07/08:00pm 27.4 25.1 7.3 28 10.8 N 9 15 5 8 1007.1 1006.6 0.0
07/07:30pm 28.3 25.4 6.4 25 11.6 NW 11 17 6 9 1007.3 1006.8 0.0
07/07:00pm 29.6 26.8 6.9 24 12.3 WNW 11 17 6 9 1007.5 1007.0 0.0
07/06:30pm 30.3 27.3 7.5 24 12.5 NW 13 28 7 15 1007.8 1007.3 0.0
07/06:00pm 30.9 27.7 6.7 22 13.1 W 13 30 7 16 1008.2 1007.7 0.0
07/05:30pm 30.8 26.9 7.3 23 12.8 NW 17 30 9 16 1008.7 1008.3 0.0
07/05:00pm 29.3 25.5 6.0 23 12.4 WNW 15 32 8 17 1009.3 1008.9 0.0
07/04:30pm 29.7 25.1 5.7 22 12.7 WNW 19 33 10 18 1009.8 1009.4 0.0
07/04:00pm 30.6 25.8 4.4 19 13.6 WNW 19 39 10 21 1010.3 1009.9 0.0
07/03:30pm 30.8 27.0 3.8 18 13.9 WNW 13 20 7 11 1010.9 1010.4 0.0
07/03:00pm 30.3 25.5 2.5 17 14.0 WNW 17 37 9 20 1011.2 1010.7 0.0
07/02:30pm 29.2 24.1 0.8 16 13.8 NW 17 30 9 16 1011.8 1011.3 0.0
07/02:00pm 28.8 24.4 0.5 16 13.6 WNW 13 26 7 14 1012.2 1011.7 0.0
07/01:30pm 28.6 24.3 3.5 20 12.7 NW 15 26 8 14 1012.7 1012.2 0.0
07/01:00pm 27.8 23.9 3.5 21 12.2 NW 13 26 7 14 1013.3 1012.8 0.0
07/12:30pm 26.4 22.8 4.8 25 11.0 NNW 13 28 7 15 1013.7 1013.2 0.0
07/12:00pm 25.6 21.5 4.1 25 10.8 NW 15 26 8 14 1014.3 1013.8 0.0
07/11:30am 24.5 21.1 5.8 30 9.6 N 13 20 7 11 1014.5 1014.0 0.0
07/11:00am 24.0 21.3 5.8 31 9.3 NE 9 20 5 11 1014.9 1014.4 0.0
07/10:30am 23.1 19.9 6.8 35 8.4 NNE 13 20 7 11 1015.1 1014.6 0.0
07/10:00am 21.0 17.5 5.4 36 7.8 NE 13 22 7 12 1015.3 1014.9 0.0
07/09:30am 20.4 17.4 6.0 39 7.2 NE 11 19 6 10 1015.4 1015.0 0.0
07/09:00am 19.9 17.1 7.0 43 6.6 E 11 15 6 8 1015.4 1015.0 0.0
07/08:30am 17.7 15.1 7.7 52 5.1 ESE 11 15 6 8 1015.1 1014.6 0.0
07/08:00am 15.9 13.8 8.4 61 3.8 SE 9 13 5 7 1015.1 1014.6 0.0
07/07:30am 12.6 10.4 7.9 73 2.3 SE 9 13 5 7 1014.9 1014.4 0.0
07/07:00am 9.7 7.9 7.1 84 1.2 S 6 9 3 5 1014.9 1014.4 0.0
07/06:30am 7.4 5.2 5.4 87 0.9 SSE 6 7 3 4 1014.6 1014.1 0.0
07/06:00am 6.9 5.8 4.9 87 0.9 CALM 0 0 0 0 1014.3 1013.8 0.0
07/05:30am 7.7 6.6 5.2 84 1.1 CALM 0 7 0 4 1014.3 1013.8 0.0
07/05:00am 8.2 7.2 5.5 83 1.2 CALM 0 0 0 0 1014.1 1013.6 0.0
07/04:30am 8.8 7.8 5.5 80 1.5 CALM 0 0 0 0 1014.1 1013.6 0.0
07/04:00am 9.2 8.2 5.4 77 1.7 CALM 0 0 0 0 1013.9 1013.4 0.0
07/03:30am 9.6 7.5 6.0 78 1.7 S 6 7 3 4 1013.7 1013.2 0.0
07/03:00am 10.0 7.9 5.8 75 1.9 S 6 7 3 4 1013.7 1013.2 0.0
07/02:30am 10.4 8.3 6.0 74 2.1 S 6 9 3 5 1013.8 1013.3 0.0
07/02:00am 11.0 8.9 6.0 71 2.3 S 6 9 3 5 1013.9 1013.4 0.0
07/01:30am 11.6 9.4 6.1 69 2.6 S 7 11 4 6 1014.3 1013.8 0.0
07/01:00am 12.0 9.8 6.1 67 2.8 SSE 7 11 4 6 1014.2 1013.7 0.0
07/12:30am 12.8 10.2 6.2 64 3.1 SSE 9 13 5 7 1014.3 1013.8 0.0
07/12:00am 12.4 9.8 6.0 65 3.0 SSE 9 11 5 6 1014.5 1014.0 0.0
 
Date/Time
EDT
Temp
°C
App
Temp
°C
Dew
Point
°C
Rel
Hum
%
Delta-T
°C
Wind Press
QNH
hPa
Press
MSL
hPa
Rain since
9am
mm
Dir  Spd
km/h
Gust
km/h
Spd
kts
Gust
kts
06/11:30pm 13.2 11.4 5.4 59 3.7 S 4 6 2 3 1014.5 1014.0 0.0
06/11:00pm 15.4 12.9 5.0 50 4.9 SSW 7 13 4 7 1014.6 1014.1 0.0
06/10:30pm 16.2 13.4 5.2 48 5.3 SW 9 11 5 6 1014.4 1013.9 0.0
06/10:00pm 16.5 14.0 4.9 46 5.5 SW 7 9 4 5 1014.2 1013.7 0.0
06/09:30pm 17.7 14.7 3.9 40 6.5 WSW 9 15 5 8 1014.1 1013.6 0.0
06/09:00pm 18.6 15.4 3.3 36 7.2 WSW 9 13 5 7 1013.7 1013.2 0.0
06/08:30pm 20.4 16.8 3.2 32 8.2 WSW 11 17 6 9 1013.4 1012.9 0.0
06/08:00pm 22.3 18.2 2.4 27 9.4 WSW 13 20 7 11 1013.1 1012.6 0.0
06/07:30pm 24.2 20.1 2.4 24 10.5 WSW 13 22 7 12 1012.7 1012.2 0.0
06/07:00pm 25.1 21.3 1.9 22 11.1 W 11 20 6 11 1012.3 1011.8 0.0
06/06:30pm 26.0 21.7 1.3 20 11.8 WSW 13 24 7 13 1012.2 1011.7 0.0
06/06:00pm 25.8 21.1 1.2 20 11.7 SW 15 26 8 14 1011.9 1011.4 0.0
06/05:30pm 26.3 21.2 0.9 19 12.1 SW 17 28 9 15 1012.3 1011.8 0.0
06/05:00pm 26.5 21.7 2.4 21 11.8 W 17 28 9 15 1012.5 1012.0 0.0
06/04:30pm 27.2 23.1 2.3 20 12.2 WSW 13 28 7 15 1012.7 1012.2 0.0
06/04:00pm 26.9 22.8 2.1 20 12.1 SW 13 20 7 11 1012.5 1012.0 0.0
06/03:30pm 25.4 20.4 1.5 21 11.4 WSW 17 30 9 16 1012.4 1011.9 0.0
06/03:00pm 25.7 21.0 3.0 23 11.2 SW 17 28 9 15 1012.8 1012.3 0.0
06/02:30pm 26.4 22.3 4.2 24 11.2 WSW 15 32 8 17 1013.0 1012.5 0.0
06/02:00pm 25.0 20.9 4.2 26 10.4 WNW 15 22 8 12 1013.1 1012.6 0.0
06/01:30pm 24.3 20.2 4.1 27 10.0 WSW 15 24 8 13 1013.5 1013.0 0.0
06/01:00pm 23.4 19.7 4.4 29 9.4 WSW 13 22 7 12 1013.7 1013.2 0.0
06/12:30pm 22.7 19.7 6.0 34 8.5 W 11 19 6 10 1013.9 1013.4 0.0
06/12:00pm 22.5 20.3 7.9 39 7.7 WSW 9 17 5 9 1014.1 1013.6 0.0
06/11:30am 20.0 17.8 7.7 45 6.4 WSW 9 15 5 8 1014.6 1014.1 0.0
06/11:00am 18.2 17.1 10.6 61 4.1 WSW 7 13 4 7 1014.7 1014.2 0.0
06/10:30am 17.1 16.6 10.7 66 3.4 WSW 4 7 2 4 1014.5 1014.0 0.0
06/10:00am 16.1 15.2 10.8 71 2.8 SW 6 9 3 5 1014.6 1014.1 0.0
06/09:30am 15.7 14.6 10.7 72 2.7 SW 7 11 4 6 1014.4 1013.9 0.0
06/09:00am 15.0 14.0 10.4 74 2.4 SSW 6 11 3 6 1014.5 1014.0 0.0
06/08:30am 14.5 13.5 10.9 79 1.9 SSW 7 9 4 5 1014.2 1013.7 0.0
06/08:00am 13.6 12.5 10.6 82 1.6 SSW 7 11 4 6 1013.9 1013.4 0.0
06/07:30am 13.0 12.0 11.1 88 1.0 SSW 7 11 4 6 1013.2 1012.7 0.0
06/07:00am 12.4 11.3 10.8 90 0.8 SSW 7 9 4 5 1012.9 1012.4 0.0
06/06:30am 12.1 11.2 10.7 91 0.7 SSW 6 9 3 5 1012.5 1012.0 0.0
06/06:00am 12.2 12.4 10.6 90 0.8 CALM 0 6 0 3 1012.1 1011.6 0.0
06/05:30am 12.1 11.1 10.3 89 0.9 SSW 6 7 3 4 1011.7 1011.2 0.0
06/05:00am 12.4 11.5 10.5 88 1.0 S 6 7 3 4 1011.1 1010.6 0.0
06/04:30am 12.6 11.6 10.3 86 1.2 S 6 9 3 5 1010.8 1010.3 0.0
06/04:00am 13.1 12.0 10.5 84 1.4 SSW 7 9 4 5 1011.3 1010.8 0.0
06/03:30am 13.1 13.2 10.3 83 1.5 CALM 0 0 0 0 1011.3 1010.8 0.0
06/03:00am 13.4 12.7 10.0 80 1.8 S 4 7 2 4 1011.0 1010.5 0.0
06/02:30am 13.8 12.5 10.0 78 2.0 S 7 11 4 6 1010.9 1010.4 0.0
06/02:00am 14.6 13.3 10.0 74 2.4 SSE 7 11 4 6 1010.9 1010.4 0.0
06/01:30am 15.2 13.9 9.8 70 2.8 S 7 11 4 6 1011.2 1010.7 0.0
06/01:00am 15.9 14.5 9.6 66 3.3 SSW 7 13 4 7 1011.7 1011.2 0.0
06/12:30am 16.1 14.4 9.8 66 3.3 S 9 13 5 7 1011.7 1011.2 0.0
06/12:00am 16.3 14.9 9.5 64 3.6 S 7 11 4 6 1011.4 1010.9 0.0
 
Date/Time
EDT
Temp
°C
App
Temp
°C
Dew
Point
°C
Rel
Hum
%
Delta-T
°C
Wind Press
QNH
hPa
Press
MSL
hPa
Rain since
9am
mm
Dir  Spd
km/h
Gust
km/h
Spd
kts
Gust
kts
05/11:30pm 17.2 15.8 8.9 58 4.3 SSE 6 11 3 6 1011.6 1011.1 0.0
05/11:00pm 17.5 16.1 8.9 57 4.5 S 6 9 3 5 1011.8 1011.3 0.0

Other Formats:

Comma delimited format used in spreadsheet applications
http://www.bom.gov.au/fwo/IDV60801/IDV60801.94839.axf

JavaScript Object Notation format (JSON) in row-major order
http://www.bom.gov.au/fwo/IDV60801/IDV60801.94839.json